createdAt,value
2017-11-13T00:00:07.277Z,4.28
2017-11-13T00:01:07.981Z,4.31
2017-11-13T00:02:08.683Z,4.24
2017-11-13T00:03:09.396Z,4.31
2017-11-13T00:04:10.109Z,4.38
2017-11-13T00:05:10.812Z,4.40
2017-11-13T00:06:11.516Z,4.38
2017-11-13T00:07:12.217Z,4.32
2017-11-13T00:08:12.938Z,4.34
2017-11-13T00:09:13.633Z,4.28
2017-11-13T00:10:14.340Z,4.32
2017-11-13T00:11:15.040Z,4.32
2017-11-13T00:12:15.742Z,4.30
2017-11-13T00:13:16.444Z,4.34
2017-11-13T00:14:17.147Z,4.30
2017-11-13T00:15:17.848Z,4.24
2017-11-13T00:16:18.561Z,4.12
2017-11-13T00:17:19.266Z,4.10
2017-11-13T00:18:19.969Z,4.06
2017-11-13T00:19:20.681Z,4.08
2017-11-13T00:20:21.383Z,4.13
2017-11-13T00:21:22.100Z,4.08
2017-11-13T00:22:22.800Z,4.10
2017-11-13T00:23:23.502Z,4.16
2017-11-13T00:24:24.219Z,4.23
2017-11-13T00:25:24.934Z,4.12
2017-11-13T00:26:25.638Z,4.26
2017-11-13T00:27:26.350Z,4.26
2017-11-13T00:28:27.063Z,4.22
2017-11-13T00:29:27.767Z,4.28
2017-11-13T00:30:28.470Z,4.12
2017-11-13T00:31:29.173Z,4.17
2017-11-13T00:32:29.879Z,4.14
2017-11-13T00:33:30.582Z,4.13
2017-11-13T00:34:31.283Z,4.13
2017-11-13T00:35:31.997Z,4.13
2017-11-13T00:36:32.714Z,4.10
2017-11-13T00:37:33.421Z,4.05
2017-11-13T00:38:34.121Z,4.06
2017-11-13T00:39:34.826Z,4.10
2017-11-13T00:40:35.529Z,4.16
2017-11-13T00:41:36.232Z,4.05
2017-11-13T00:42:36.934Z,4.02
2017-11-13T00:43:37.637Z,4.14
2017-11-13T00:44:38.339Z,4.10
2017-11-13T00:45:39.043Z,4.10
2017-11-13T00:46:39.745Z,4.05
2017-11-13T00:47:40.446Z,4.12
2017-11-13T00:48:41.149Z,4.04
2017-11-13T00:49:41.866Z,4.12
2017-11-13T00:50:42.588Z,4.02
2017-11-13T00:51:43.297Z,4.04
2017-11-13T00:52:43.999Z,4.05
2017-11-13T00:53:44.700Z,4.10
2017-11-13T00:54:45.402Z,4.08
2017-11-13T00:55:46.106Z,4.04
2017-11-13T00:56:46.820Z,4.05
2017-11-13T00:57:47.540Z,4.01
2017-11-13T00:58:48.253Z,4.13
2017-11-13T00:59:48.957Z,4.06
2017-11-13T01:00:49.662Z,4.05
2017-11-13T01:01:50.365Z,4.14
2017-11-13T01:02:51.070Z,4.12
2017-11-13T01:03:51.774Z,4.05
2017-11-13T01:04:52.479Z,4.05
2017-11-13T01:05:53.182Z,4.01
2017-11-13T01:06:53.885Z,4.10
2017-11-13T01:07:54.590Z,4.14
2017-11-13T01:08:55.296Z,4.12
2017-11-13T01:09:56.015Z,4.10
2017-11-13T01:10:56.713Z,4.05
2017-11-13T01:11:57.415Z,4.14
2017-11-13T01:12:58.117Z,4.20
2017-11-13T01:13:58.822Z,4.13
2017-11-13T01:14:59.523Z,4.10
2017-11-13T01:16:00.238Z,4.22
2017-11-13T01:17:00.950Z,4.23
2017-11-13T01:18:01.643Z,4.17
2017-11-13T01:19:02.357Z,4.20
2017-11-13T01:20:03.059Z,4.24
2017-11-13T01:21:03.774Z,4.24
2017-11-13T01:22:04.475Z,4.23
2017-11-13T01:23:05.179Z,4.32
2017-11-13T01:24:05.881Z,4.34
2017-11-13T01:25:06.583Z,4.28
2017-11-13T01:26:07.299Z,4.30
2017-11-13T01:27:08.001Z,4.40
2017-11-13T01:28:08.701Z,4.28
2017-11-13T01:29:09.404Z,4.30
2017-11-13T01:30:10.114Z,4.32
2017-11-13T01:31:10.823Z,4.34
2017-11-13T01:32:11.523Z,4.30
2017-11-13T01:33:12.238Z,4.24
2017-11-13T01:34:12.955Z,4.31
2017-11-13T01:35:13.656Z,4.30
2017-11-13T01:36:14.359Z,4.42
2017-11-13T01:37:15.063Z,4.34
2017-11-13T01:38:15.766Z,4.34
2017-11-13T01:39:16.469Z,4.32
2017-11-13T01:40:17.173Z,4.30
2017-11-13T01:41:17.877Z,4.34
2017-11-13T01:42:18.593Z,4.30
2017-11-13T01:43:19.304Z,4.34
2017-11-13T01:44:20.008Z,4.32
2017-11-13T01:45:20.713Z,4.30
2017-11-13T01:46:21.416Z,4.32
2017-11-13T01:47:22.117Z,4.41
2017-11-13T01:48:22.820Z,4.32
2017-11-13T01:49:23.533Z,4.34
2017-11-13T01:50:24.237Z,4.37
2017-11-13T01:51:24.939Z,4.34
2017-11-13T01:52:25.641Z,4.44
2017-11-13T01:53:26.344Z,4.41
2017-11-13T01:54:27.047Z,4.45
2017-11-13T01:55:27.769Z,4.41
2017-11-13T01:56:28.476Z,4.42
2017-11-13T01:57:29.182Z,4.35
2017-11-13T01:58:29.886Z,4.32
2017-11-13T01:59:30.603Z,4.41
2017-11-13T02:00:31.318Z,4.41
2017-11-13T02:01:32.033Z,4.55
2017-11-13T02:02:32.735Z,4.44
2017-11-13T02:03:33.437Z,4.55
2017-11-13T02:04:34.140Z,4.48
2017-11-13T02:05:34.844Z,4.44
2017-11-13T02:06:35.557Z,4.48
2017-11-13T02:07:36.265Z,4.59
2017-11-13T02:08:36.976Z,4.56
2017-11-13T02:09:37.692Z,4.67
2017-11-13T02:10:38.394Z,4.53
2017-11-13T02:11:39.096Z,4.53
2017-11-13T02:12:39.811Z,4.62
2017-11-13T02:13:40.525Z,4.60
2017-11-13T02:14:41.241Z,4.55
2017-11-13T02:15:41.945Z,4.59
2017-11-13T02:16:42.650Z,4.62
2017-11-13T02:17:43.353Z,4.63
2017-11-13T02:18:44.056Z,4.59
2017-11-13T02:19:44.760Z,4.56
2017-11-13T02:20:45.460Z,4.58
2017-11-13T02:21:46.165Z,4.56
2017-11-13T02:22:46.868Z,4.59
2017-11-13T02:23:47.571Z,4.62
2017-11-13T02:24:48.272Z,4.63
2017-11-13T02:25:48.974Z,4.56
2017-11-13T02:26:49.677Z,4.70
2017-11-13T02:27:50.392Z,4.67
2017-11-13T02:28:51.089Z,4.71
2017-11-13T02:29:51.794Z,4.70
2017-11-13T02:30:52.489Z,4.86
2017-11-13T02:31:53.200Z,4.80
2017-11-13T02:32:53.904Z,4.94
2017-11-13T02:33:54.608Z,5.00
2017-11-13T02:34:55.320Z,4.99
2017-11-13T02:35:56.024Z,5.05
2017-11-13T02:36:56.726Z,4.97
2017-11-13T02:37:57.448Z,5.12
2017-11-13T02:38:58.148Z,5.15
2017-11-13T02:39:58.852Z,5.18
2017-11-13T02:40:59.556Z,5.23
2017-11-13T02:42:00.259Z,5.30
2017-11-13T02:43:00.961Z,5.41
2017-11-13T02:44:01.680Z,5.32
2017-11-13T02:45:02.382Z,5.43
2017-11-13T02:46:03.084Z,5.57
2017-11-13T02:47:03.790Z,5.64
2017-11-13T02:48:04.493Z,5.62
2017-11-13T02:49:05.200Z,5.66
2017-11-13T02:50:05.903Z,5.64
2017-11-13T02:51:06.609Z,5.62
2017-11-13T02:52:07.317Z,5.65
2017-11-13T02:53:08.016Z,5.68
2017-11-13T02:54:08.734Z,5.65
2017-11-13T02:55:09.436Z,5.65
2017-11-13T02:56:10.151Z,5.69
2017-11-13T02:57:10.867Z,5.68
2017-11-13T02:58:11.581Z,5.68
2017-11-13T02:59:12.295Z,5.73
2017-11-13T03:00:12.999Z,5.73
2017-11-13T03:01:13.712Z,5.66
2017-11-13T03:02:14.423Z,5.72
2017-11-13T03:03:15.119Z,5.68
2017-11-13T03:04:15.819Z,5.69
2017-11-13T03:05:16.524Z,5.64
2017-11-13T03:06:17.240Z,5.65
2017-11-13T03:07:17.943Z,5.66
2017-11-13T03:08:18.646Z,5.65
2017-11-13T03:09:19.349Z,5.64
2017-11-13T03:10:20.053Z,5.57
2017-11-13T03:11:20.755Z,5.59
2017-11-13T03:12:21.459Z,5.50
2017-11-13T03:13:22.160Z,5.50
2017-11-13T03:14:22.864Z,5.47
2017-11-13T03:15:23.580Z,5.38
2017-11-13T03:16:24.297Z,5.39
2017-11-13T03:17:25.016Z,5.41
2017-11-13T03:18:25.719Z,5.33
2017-11-13T03:19:26.436Z,5.36
2017-11-13T03:20:27.126Z,5.26
2017-11-13T03:21:27.831Z,5.30
2017-11-13T03:22:28.537Z,5.20
2017-11-13T03:23:29.252Z,5.26
2017-11-13T03:24:29.960Z,5.17
2017-11-13T03:25:30.656Z,5.18
2017-11-13T03:26:31.372Z,5.21
2017-11-13T03:27:32.084Z,5.15
2017-11-13T03:28:32.796Z,5.15
2017-11-13T03:29:33.493Z,5.26
2017-11-13T03:30:34.210Z,5.18
2017-11-13T03:31:34.911Z,5.28
2017-11-13T03:32:35.614Z,5.21
2017-11-13T03:33:36.317Z,5.23
2017-11-13T03:34:37.035Z,5.26
2017-11-13T03:35:37.739Z,5.18
2017-11-13T03:36:38.443Z,5.35
2017-11-13T03:37:39.159Z,5.38
2017-11-13T03:38:39.861Z,5.35
2017-11-13T03:39:40.564Z,5.48
2017-11-13T03:40:41.270Z,5.46
2017-11-13T03:41:41.971Z,5.54
2017-11-13T03:42:42.688Z,5.48
2017-11-13T03:43:43.393Z,5.48
2017-11-13T03:44:44.093Z,5.44
2017-11-13T03:45:44.797Z,5.48
2017-11-13T03:46:45.512Z,5.48
2017-11-13T03:47:46.214Z,5.44
2017-11-13T03:48:46.917Z,5.57
2017-11-13T03:49:47.632Z,5.65
2017-11-13T03:50:48.335Z,5.66
2017-11-13T03:51:49.050Z,5.59
2017-11-13T03:52:49.752Z,5.69
2017-11-13T03:53:50.458Z,5.73
2017-11-13T03:54:51.159Z,5.79
2017-11-13T03:55:51.865Z,5.75
2017-11-13T03:56:52.580Z,5.73
2017-11-13T03:57:53.284Z,5.83
2017-11-13T03:58:53.995Z,5.87
2017-11-13T03:59:54.696Z,5.83
2017-11-13T04:00:55.402Z,5.94
2017-11-13T04:01:56.106Z,5.87
2017-11-13T04:02:56.813Z,5.89
2017-11-13T04:03:57.529Z,5.91
2017-11-13T04:04:58.230Z,6.01
2017-11-13T04:05:58.933Z,5.89
2017-11-13T04:06:59.636Z,5.87
2017-11-13T04:08:00.338Z,5.82
2017-11-13T04:09:01.054Z,5.97
2017-11-13T04:10:01.757Z,6.09
2017-11-13T04:11:02.471Z,6.05
2017-11-13T04:12:03.175Z,6.08
2017-11-13T04:13:03.889Z,6.19
2017-11-13T04:14:04.594Z,6.20
2017-11-13T04:15:05.310Z,6.19
2017-11-13T04:16:06.017Z,6.26
2017-11-13T04:17:06.734Z,6.22
2017-11-13T04:18:07.437Z,6.19
2017-11-13T04:19:08.156Z,6.20
2017-11-13T04:20:08.865Z,6.24
2017-11-13T04:21:09.570Z,5.99
2017-11-13T04:22:10.287Z,5.99
2017-11-13T04:23:10.990Z,6.04
2017-11-13T04:24:11.694Z,6.02
2017-11-13T04:25:12.411Z,6.20
2017-11-13T04:26:13.114Z,6.07
2017-11-13T04:27:13.841Z,5.99
2017-11-13T04:28:14.545Z,6.01
2017-11-13T04:29:15.263Z,5.93
2017-11-13T04:30:15.980Z,6.04
2017-11-13T04:31:16.699Z,5.93
2017-11-13T04:32:17.404Z,5.93
2017-11-13T04:33:18.103Z,5.94
2017-11-13T04:34:18.806Z,5.94
2017-11-13T04:35:19.515Z,5.87
2017-11-13T04:36:20.214Z,5.84
2017-11-13T04:37:20.928Z,5.86
2017-11-13T04:38:21.631Z,5.83
2017-11-13T04:39:22.335Z,5.86
2017-11-13T04:40:23.040Z,5.73
2017-11-13T04:41:23.743Z,5.68
2017-11-13T04:42:24.458Z,5.82
2017-11-13T04:43:25.176Z,5.80
2017-11-13T04:44:25.881Z,5.82
2017-11-13T04:45:26.597Z,5.71
2017-11-13T04:46:27.310Z,5.75
2017-11-13T04:47:28.013Z,5.89
2017-11-13T04:48:28.718Z,5.75
2017-11-13T04:49:29.422Z,5.61
2017-11-13T04:50:30.125Z,5.72
2017-11-13T04:51:30.829Z,5.79
2017-11-13T04:52:31.532Z,5.76
2017-11-13T04:53:32.247Z,5.79
2017-11-13T04:54:32.954Z,5.69
2017-11-13T04:55:33.654Z,5.80
2017-11-13T04:56:34.371Z,5.68
2017-11-13T04:57:35.087Z,5.68
2017-11-13T04:58:35.792Z,5.66
2017-11-13T04:59:36.496Z,5.64
2017-11-13T05:00:37.202Z,5.62
2017-11-13T05:01:37.905Z,5.65
2017-11-13T05:02:38.611Z,5.64
2017-11-13T05:03:39.315Z,5.65
2017-11-13T05:04:40.031Z,5.69
2017-11-13T05:05:40.734Z,5.68
2017-11-13T05:06:41.436Z,5.62
2017-11-13T05:07:42.152Z,5.65
2017-11-13T05:08:42.854Z,5.69
2017-11-13T05:09:43.559Z,5.73
2017-11-13T05:10:44.264Z,5.64
2017-11-13T05:11:44.968Z,5.73
2017-11-13T05:12:45.677Z,5.82
2017-11-13T05:13:46.376Z,5.69
2017-11-13T05:14:47.081Z,5.76
2017-11-13T05:15:47.785Z,5.90
2017-11-13T05:16:48.499Z,5.99
2017-11-13T05:17:49.201Z,5.91
2017-11-13T05:18:49.905Z,5.97
2017-11-13T05:19:50.609Z,5.91
2017-11-13T05:20:51.312Z,5.98
2017-11-13T05:21:52.018Z,5.94
2017-11-13T05:22:52.724Z,5.87
2017-11-13T05:23:53.426Z,5.86
2017-11-13T05:24:54.129Z,5.89
2017-11-13T05:25:54.833Z,5.84
2017-11-13T05:26:55.537Z,5.87
2017-11-13T05:27:56.239Z,5.82
2017-11-13T05:28:56.947Z,5.80
2017-11-13T05:29:57.650Z,5.71
2017-11-13T05:30:58.354Z,5.71
2017-11-13T05:31:59.057Z,5.65
2017-11-13T05:32:59.760Z,5.66
2017-11-13T05:34:00.466Z,5.62
2017-11-13T05:35:01.169Z,5.57
2017-11-13T05:36:01.873Z,5.56
2017-11-13T05:37:02.577Z,5.48
2017-11-13T05:38:03.282Z,5.48
2017-11-13T05:39:03.985Z,5.53
2017-11-13T05:40:04.691Z,5.51
2017-11-13T05:41:05.396Z,5.43
2017-11-13T05:42:06.101Z,5.50
2017-11-13T05:43:06.813Z,5.38
2017-11-13T05:44:07.510Z,5.36
2017-11-13T05:45:08.221Z,5.38
2017-11-13T05:46:08.932Z,5.28
2017-11-13T05:47:09.635Z,5.33
2017-11-13T05:48:10.345Z,5.33
2017-11-13T05:49:11.042Z,5.30
2017-11-13T05:50:11.745Z,5.30
2017-11-13T05:51:12.456Z,5.25
2017-11-13T05:52:13.152Z,5.23
2017-11-13T05:53:13.854Z,5.18
2017-11-13T05:54:14.570Z,5.35
2017-11-13T05:55:15.272Z,5.26
2017-11-13T05:56:15.987Z,5.30
2017-11-13T05:57:16.690Z,5.32
2017-11-13T05:58:17.396Z,5.30
2017-11-13T05:59:18.100Z,5.33
2017-11-13T06:00:18.806Z,5.29
2017-11-13T06:01:19.512Z,5.32
2017-11-13T06:02:20.217Z,5.28
2017-11-13T06:03:20.932Z,5.29
2017-11-13T06:04:21.649Z,5.23
2017-11-13T06:05:22.356Z,5.25
2017-11-13T06:06:23.060Z,5.17
2017-11-13T06:07:23.766Z,5.33
2017-11-13T06:08:24.480Z,5.26
2017-11-13T06:09:25.184Z,5.25
2017-11-13T06:10:25.888Z,5.32
2017-11-13T06:11:26.592Z,5.29
2017-11-13T06:12:27.295Z,5.25
2017-11-13T06:13:28.000Z,5.32
2017-11-13T06:14:28.704Z,5.29
2017-11-13T06:15:29.405Z,5.29
2017-11-13T06:16:30.121Z,5.32
2017-11-13T06:17:30.826Z,5.18
2017-11-13T06:18:31.535Z,5.18
2017-11-13T06:19:32.234Z,5.15
2017-11-13T06:20:32.938Z,5.18
2017-11-13T06:21:33.641Z,5.23
2017-11-13T06:22:34.344Z,5.20
2017-11-13T06:23:35.050Z,5.20
2017-11-13T06:24:35.767Z,5.14
2017-11-13T06:25:36.472Z,5.15
2017-11-13T06:26:37.179Z,5.15
2017-11-13T06:27:37.882Z,5.18
2017-11-13T06:28:38.587Z,5.12
2017-11-13T06:29:39.291Z,5.05
2017-11-13T06:30:39.996Z,5.00
2017-11-13T06:31:40.702Z,5.02
2017-11-13T06:32:41.405Z,5.11
2017-11-13T06:33:42.110Z,5.11
2017-11-13T06:34:42.820Z,5.11
2017-11-13T06:35:43.529Z,5.10
2017-11-13T06:36:44.225Z,5.08
2017-11-13T06:37:44.929Z,5.10
2017-11-13T06:38:45.652Z,5.08
2017-11-13T06:39:46.355Z,5.05
2017-11-13T06:40:47.073Z,5.17
2017-11-13T06:41:47.779Z,5.20
2017-11-13T06:42:48.498Z,5.05
2017-11-13T06:43:49.218Z,5.11
2017-11-13T06:44:49.925Z,5.11
2017-11-13T06:45:50.633Z,5.11
2017-11-13T06:46:51.337Z,5.05
2017-11-13T06:47:52.057Z,5.12
2017-11-13T06:48:52.771Z,5.14
2017-11-13T06:49:53.473Z,5.11
2017-11-13T06:50:54.193Z,5.17
2017-11-13T06:51:54.914Z,5.11
2017-11-13T06:52:55.620Z,5.07
2017-11-13T06:53:56.328Z,5.05
2017-11-13T06:54:57.033Z,5.04
2017-11-13T06:55:57.745Z,5.04
2017-11-13T06:56:58.451Z,5.12
2017-11-13T06:57:59.173Z,5.07
2017-11-13T06:58:59.888Z,5.17
2017-11-13T07:00:00.592Z,5.17
2017-11-13T07:01:01.310Z,5.07
2017-11-13T07:02:02.023Z,5.07
2017-11-13T07:03:02.725Z,5.05
2017-11-13T07:04:03.435Z,5.05
2017-11-13T07:05:04.151Z,5.15
2017-11-13T07:06:04.859Z,5.14
2017-11-13T07:07:05.580Z,5.15
2017-11-13T07:08:06.298Z,5.14
2017-11-13T07:09:06.994Z,5.18
2017-11-13T07:10:07.699Z,5.15
2017-11-13T07:11:08.405Z,5.17
2017-11-13T07:12:09.113Z,5.18
2017-11-13T07:13:09.821Z,5.20
2017-11-13T07:14:10.543Z,5.28
2017-11-13T07:15:11.251Z,5.20
2017-11-13T07:16:11.971Z,5.30
2017-11-13T07:17:12.680Z,5.30
2017-11-13T07:18:13.403Z,5.35
2017-11-13T07:19:14.111Z,5.26
2017-11-13T07:20:14.821Z,5.30
2017-11-13T07:21:15.528Z,5.38
2017-11-13T07:22:16.237Z,5.41
2017-11-13T07:23:16.957Z,5.38
2017-11-13T07:24:17.667Z,5.35
2017-11-13T07:25:18.382Z,5.28
2017-11-13T07:26:19.085Z,5.38
2017-11-13T07:27:19.794Z,5.39
2017-11-13T07:28:20.502Z,5.48
2017-11-13T07:29:21.217Z,5.47
2017-11-13T07:30:21.918Z,5.44
2017-11-13T07:31:22.627Z,5.48
2017-11-13T07:32:23.337Z,5.46
2017-11-13T07:33:24.047Z,5.47
2017-11-13T07:34:24.754Z,5.57
2017-11-13T07:35:25.478Z,5.68
2017-11-13T07:36:26.186Z,5.71
2017-11-13T07:37:26.898Z,5.80
2017-11-13T07:38:27.618Z,5.89
2017-11-13T07:39:28.325Z,6.08
2017-11-13T07:40:29.048Z,6.36
2017-11-13T07:41:29.765Z,6.69
2017-11-13T07:42:30.467Z,7.02
2017-11-13T07:43:31.179Z,7.17
2017-11-13T07:44:31.891Z,7.36
2017-11-13T07:45:32.608Z,7.40
2017-11-13T07:46:33.312Z,7.38
2017-11-13T07:47:34.036Z,7.45
2017-11-13T07:48:34.758Z,7.36
2017-11-13T07:49:35.470Z,7.23
2017-11-13T07:50:36.196Z,7.20
2017-11-13T07:51:36.905Z,7.14
2017-11-13T07:52:37.627Z,6.92
2017-11-13T07:53:38.338Z,6.85
2017-11-13T07:54:39.070Z,6.87
2017-11-13T07:55:39.779Z,6.96
2017-11-13T07:56:40.504Z,6.96
2017-11-13T07:57:41.216Z,7.20
2017-11-13T07:58:41.938Z,7.10
2017-11-13T07:59:42.650Z,6.99
2017-11-13T08:00:43.359Z,7.15
2017-11-13T08:01:44.081Z,7.56
2017-11-13T08:02:44.794Z,8.03
2017-11-13T08:03:45.506Z,8.33
2017-11-13T08:04:46.221Z,8.66
2017-11-13T08:05:46.935Z,9.10
2017-11-13T08:06:47.647Z,9.50
2017-11-13T08:07:48.371Z,9.86
2017-11-13T08:08:49.084Z,9.73
2017-11-13T08:09:49.812Z,9.87
2017-11-13T08:10:50.525Z,9.84
2017-11-13T08:11:51.241Z,9.99
2017-11-13T08:12:51.964Z,10.44
2017-11-13T08:13:52.678Z,10.46
2017-11-13T08:14:53.392Z,10.54
2017-11-13T08:15:54.109Z,10.41
2017-11-13T08:16:54.823Z,10.25
2017-11-13T08:17:55.539Z,10.04
2017-11-13T08:18:56.250Z,9.87
2017-11-13T08:19:56.975Z,9.66
2017-11-13T08:20:57.693Z,9.28
2017-11-13T08:21:58.417Z,9.31
2017-11-13T08:22:59.131Z,9.19
2017-11-13T08:23:59.843Z,9.00
2017-11-13T08:25:00.556Z,8.84
2017-11-13T08:26:01.270Z,8.78
2017-11-13T08:27:01.986Z,8.69
2017-11-13T08:28:02.715Z,8.56
2017-11-13T08:29:03.440Z,8.36
2017-11-13T08:30:04.161Z,8.33
2017-11-13T08:31:04.867Z,8.28
2017-11-13T08:32:05.579Z,8.24
2017-11-13T08:33:06.291Z,8.24
2017-11-13T08:34:07.006Z,8.12
2017-11-13T08:35:07.719Z,8.09
2017-11-13T08:36:08.431Z,8.13
2017-11-13T08:37:09.144Z,8.19
2017-11-13T08:38:09.858Z,8.12
2017-11-13T08:39:10.571Z,8.16
2017-11-13T08:40:11.286Z,8.10
2017-11-13T08:41:11.994Z,8.12
2017-11-13T08:42:12.709Z,8.10
2017-11-13T08:43:13.425Z,8.15
2017-11-13T08:44:14.136Z,8.30
2017-11-13T08:45:14.851Z,8.34
2017-11-13T08:46:15.565Z,8.66
2017-11-13T08:47:16.282Z,9.11
2017-11-13T08:48:17.006Z,9.58
2017-11-13T08:49:17.728Z,9.65
2017-11-13T08:50:18.450Z,9.62
2017-11-13T08:51:19.166Z,9.40
2017-11-13T08:52:19.883Z,9.37
2017-11-13T08:53:20.596Z,9.32
2017-11-13T08:54:21.312Z,9.22
2017-11-13T08:55:22.027Z,9.11
2017-11-13T08:56:22.741Z,9.00
2017-11-13T08:57:23.455Z,8.81
2017-11-13T08:58:24.167Z,8.74
2017-11-13T08:59:24.893Z,8.66
2017-11-13T09:00:25.621Z,8.73
2017-11-13T09:01:26.333Z,8.71
2017-11-13T09:02:27.047Z,8.58
2017-11-13T09:03:27.773Z,8.58
2017-11-13T09:04:28.485Z,8.61
2017-11-13T09:05:29.200Z,8.49
2017-11-13T09:06:29.926Z,8.34
2017-11-13T09:07:30.640Z,8.24
2017-11-13T09:08:31.355Z,8.24
2017-11-13T09:09:32.069Z,8.13
2017-11-13T09:10:32.783Z,8.13
2017-11-13T09:11:33.498Z,8.13
2017-11-13T09:12:34.214Z,8.10
2017-11-13T09:13:34.939Z,8.13
2017-11-13T09:14:35.651Z,8.10
2017-11-13T09:15:36.365Z,8.10
2017-11-13T09:16:37.079Z,8.05
2017-11-13T09:17:37.795Z,8.08
2017-11-13T09:18:38.511Z,7.98
2017-11-13T09:19:39.233Z,7.93
2017-11-13T09:20:39.947Z,7.93
2017-11-13T09:21:40.660Z,7.98
2017-11-13T09:22:41.388Z,7.93
2017-11-13T09:23:42.099Z,8.12
2017-11-13T09:24:42.813Z,8.30
2017-11-13T09:25:43.527Z,8.55
2017-11-13T09:26:44.243Z,9.39
2017-11-13T09:27:44.960Z,10.04
2017-11-13T09:28:45.677Z,10.76
2017-11-13T09:29:46.400Z,11.00
2017-11-13T09:30:47.124Z,11.44
2017-11-13T09:31:47.853Z,11.83
2017-11-13T09:32:48.577Z,12.42
2017-11-13T09:33:49.293Z,12.57
2017-11-13T09:34:50.023Z,12.80
2017-11-13T09:35:50.743Z,13.33
2017-11-13T09:36:51.463Z,13.63
2017-11-13T09:37:52.184Z,13.01
2017-11-13T09:38:52.904Z,12.78
2017-11-13T09:39:53.624Z,12.62
2017-11-13T09:40:54.342Z,12.28
2017-11-13T09:41:55.060Z,11.94
2017-11-13T09:42:55.787Z,11.78
2017-11-13T09:43:56.511Z,11.57
2017-11-13T09:44:57.231Z,11.57
2017-11-13T09:45:57.949Z,11.83
2017-11-13T09:46:58.668Z,12.39
2017-11-13T09:47:59.391Z,12.85
2017-11-13T09:49:00.121Z,13.49
2017-11-13T09:50:00.834Z,14.35
2017-11-13T09:51:01.567Z,14.40
2017-11-13T09:52:02.289Z,14.59
2017-11-13T09:53:03.008Z,14.20
2017-11-13T09:54:03.743Z,14.03
2017-11-13T09:55:04.462Z,13.44
2017-11-13T09:56:05.182Z,13.86
2017-11-13T09:57:05.904Z,13.92
2017-11-13T09:58:06.627Z,14.20
2017-11-13T09:59:07.347Z,14.60
2017-11-13T10:00:08.094Z,15.11
2017-11-13T10:01:08.792Z,15.55
2017-11-13T10:02:09.528Z,14.84
2017-11-13T10:03:10.261Z,15.31
2017-11-13T10:04:10.985Z,15.27
2017-11-13T10:05:11.710Z,15.06
2017-11-13T10:06:12.434Z,15.27
2017-11-13T10:07:13.171Z,15.80
2017-11-13T10:08:13.894Z,16.12
2017-11-13T10:09:14.626Z,15.94
2017-11-13T10:10:15.345Z,16.10
2017-11-13T10:11:16.071Z,16.56
2017-11-13T10:12:16.794Z,15.84
2017-11-13T10:13:17.517Z,15.52
2017-11-13T10:14:18.249Z,15.64
2017-11-13T10:15:18.968Z,15.67
2017-11-13T10:16:19.698Z,15.92
2017-11-13T10:17:20.420Z,16.47
2017-11-13T10:18:21.156Z,16.24
2017-11-13T10:19:21.883Z,16.00
2017-11-13T10:20:22.605Z,15.59
2017-11-13T10:21:23.336Z,15.64
2017-11-13T10:22:24.055Z,15.24
2017-11-13T10:23:24.778Z,14.88
2017-11-13T10:24:25.505Z,14.63
2017-11-13T10:25:26.236Z,14.48
2017-11-13T10:26:26.959Z,14.18
2017-11-13T10:27:27.696Z,14.18
2017-11-13T10:28:28.432Z,14.10
2017-11-13T10:29:29.150Z,13.96
2017-11-13T10:30:29.887Z,14.11
2017-11-13T10:31:30.621Z,14.15
2017-11-13T10:32:31.343Z,14.65
2017-11-13T10:33:32.067Z,15.15
2017-11-13T10:34:32.788Z,15.40
2017-11-13T10:35:33.519Z,15.91
2017-11-13T10:36:34.240Z,16.38
2017-11-13T10:37:34.964Z,17.15
2017-11-13T10:38:35.688Z,17.57
2017-11-13T10:39:36.426Z,18.43
2017-11-13T10:40:37.153Z,18.43
2017-11-13T10:41:37.881Z,18.70
2017-11-13T10:42:38.608Z,18.20
2017-11-13T10:43:39.333Z,17.78
2017-11-13T10:44:40.062Z,18.05
2017-11-13T10:45:40.805Z,17.51
2017-11-13T10:46:41.532Z,17.67
2017-11-13T10:47:42.263Z,17.67
2017-11-13T10:48:42.986Z,17.85
2017-11-13T10:49:43.715Z,17.78
2017-11-13T10:50:44.443Z,17.67
2017-11-13T10:51:45.184Z,18.07
2017-11-13T10:52:45.923Z,18.20
2017-11-13T10:53:46.653Z,18.44
2017-11-13T10:54:47.380Z,18.11
2017-11-13T10:55:48.113Z,18.28
2017-11-13T10:56:48.840Z,17.90
2017-11-13T10:57:49.569Z,18.19
2017-11-13T10:58:50.298Z,18.33
2017-11-13T10:59:51.029Z,18.60
2017-11-13T11:00:51.756Z,18.75
2017-11-13T11:01:52.489Z,18.78
2017-11-13T11:02:53.217Z,19.48
2017-11-13T11:03:53.944Z,19.31
2017-11-13T11:04:54.672Z,19.63
2017-11-13T11:05:55.403Z,20.21
2017-11-13T11:06:56.134Z,20.40
2017-11-13T11:07:56.867Z,20.21
2017-11-13T11:08:57.599Z,19.94
2017-11-13T11:09:58.330Z,19.49
2017-11-13T11:10:59.058Z,18.92
2017-11-13T11:11:59.792Z,19.24
2017-11-13T11:13:00.527Z,19.56
2017-11-13T11:14:01.261Z,19.74
2017-11-13T11:15:02.005Z,19.24
2017-11-13T11:16:02.738Z,19.18
2017-11-13T11:17:03.468Z,19.52
2017-11-13T11:18:04.211Z,19.77
2017-11-13T11:19:04.944Z,20.09
2017-11-13T11:20:05.676Z,20.19
2017-11-13T11:21:06.407Z,20.29
2017-11-13T11:22:07.140Z,19.64
2017-11-13T11:23:07.876Z,19.73
2017-11-13T11:24:08.617Z,19.62
2017-11-13T11:25:09.348Z,18.77
2017-11-13T11:26:10.079Z,19.09
2017-11-13T11:27:10.813Z,18.62
2017-11-13T11:28:11.543Z,18.73
2017-11-13T11:29:12.274Z,19.24
2017-11-13T11:30:13.005Z,19.76
2017-11-13T11:31:13.736Z,19.18
2017-11-13T11:32:14.476Z,20.13
2017-11-13T11:33:15.212Z,20.37
2017-11-13T11:34:15.957Z,20.32
2017-11-13T11:35:16.694Z,20.62
2017-11-13T11:36:17.420Z,20.48
2017-11-13T11:37:18.153Z,20.29
2017-11-13T11:38:18.901Z,20.41
2017-11-13T11:39:19.634Z,20.32
2017-11-13T11:40:20.369Z,20.00
2017-11-13T11:41:21.119Z,19.33
2017-11-13T11:42:21.858Z,19.24
2017-11-13T11:43:22.591Z,19.11
2017-11-13T11:44:23.336Z,18.95
2017-11-13T11:45:24.068Z,19.08
2017-11-13T11:46:24.801Z,19.24
2017-11-13T11:47:25.546Z,19.33
2017-11-13T11:48:26.280Z,19.24
2017-11-13T11:49:27.014Z,18.45
2017-11-13T11:50:27.748Z,18.74
2017-11-13T11:51:28.490Z,18.75
2017-11-13T11:52:29.223Z,19.24
2017-11-13T11:53:29.958Z,19.11
2017-11-13T11:54:30.689Z,18.63
2017-11-13T11:55:31.420Z,18.77
2017-11-13T11:56:32.157Z,18.26
2017-11-13T11:57:32.884Z,18.60
2017-11-13T11:58:33.616Z,18.05
2017-11-13T11:59:34.349Z,18.41
2017-11-13T12:00:35.083Z,18.29
2017-11-13T12:01:35.812Z,18.44
2017-11-13T12:02:36.547Z,18.18
2017-11-13T12:03:37.277Z,18.62
2017-11-13T12:04:38.009Z,18.95
2017-11-13T12:05:38.745Z,18.50
2017-11-13T12:06:39.483Z,18.26
2017-11-13T12:07:40.209Z,17.79
2017-11-13T12:08:40.937Z,17.70
2017-11-13T12:09:41.669Z,17.82
2017-11-13T12:10:42.407Z,17.98
2017-11-13T12:11:43.132Z,18.53
2017-11-13T12:12:43.863Z,19.29
2017-11-13T12:13:44.606Z,19.15
2017-11-13T12:14:45.337Z,19.71
2017-11-13T12:15:46.068Z,19.99
2017-11-13T12:16:46.798Z,20.32
2017-11-13T12:17:47.531Z,20.06
2017-11-13T12:18:48.263Z,19.91
2017-11-13T12:19:48.994Z,19.27
2017-11-13T12:20:49.721Z,18.60
2017-11-13T12:21:50.449Z,17.56
2017-11-13T12:22:51.176Z,16.90
2017-11-13T12:23:51.901Z,16.21
2017-11-13T12:24:52.625Z,15.72
2017-11-13T12:25:53.351Z,15.39
2017-11-13T12:26:54.073Z,15.09
2017-11-13T12:27:54.807Z,15.14
2017-11-13T12:28:55.530Z,14.97
2017-11-13T12:29:56.251Z,14.55
2017-11-13T12:30:56.973Z,14.29
2017-11-13T12:31:57.696Z,14.12
2017-11-13T12:32:58.416Z,13.81
2017-11-13T12:33:59.139Z,13.25
2017-11-13T12:34:59.876Z,13.20
2017-11-13T12:36:00.607Z,13.03
2017-11-13T12:37:01.328Z,12.97
2017-11-13T12:38:02.047Z,13.00
2017-11-13T12:39:02.769Z,12.86
2017-11-13T12:40:03.490Z,12.83
2017-11-13T12:41:04.213Z,12.79
2017-11-13T12:42:04.930Z,12.93
2017-11-13T12:43:05.651Z,13.00
2017-11-13T12:44:06.373Z,13.49
2017-11-13T12:45:07.093Z,13.70
2017-11-13T12:46:07.812Z,14.08
2017-11-13T12:47:08.536Z,13.96
2017-11-13T12:48:09.263Z,13.95
2017-11-13T12:49:09.983Z,13.89
2017-11-13T12:50:10.704Z,14.03
2017-11-13T12:51:11.425Z,14.18
2017-11-13T12:52:12.145Z,14.26
2017-11-13T12:53:12.869Z,13.95
2017-11-13T12:54:13.601Z,14.23
2017-11-13T12:55:14.323Z,14.54
2017-11-13T12:56:15.045Z,14.65
2017-11-13T12:57:15.764Z,14.60
2017-11-13T12:58:16.486Z,14.70
2017-11-13T12:59:17.207Z,14.37
2017-11-13T13:00:17.932Z,14.51
2017-11-13T13:01:18.660Z,14.72
2017-11-13T13:02:19.378Z,14.85
2017-11-13T13:03:20.099Z,14.89
2017-11-13T13:04:20.819Z,14.85
2017-11-13T13:05:21.547Z,14.59
2017-11-13T13:06:22.265Z,14.66
2017-11-13T13:07:22.987Z,14.60
2017-11-13T13:08:23.710Z,14.40
2017-11-13T13:09:24.435Z,14.50
2017-11-13T13:10:25.151Z,14.40
2017-11-13T13:11:25.884Z,14.41
2017-11-13T13:12:26.606Z,14.36
2017-11-13T13:13:27.329Z,14.41
2017-11-13T13:14:28.047Z,14.53
2017-11-13T13:15:28.768Z,14.51
2017-11-13T13:16:29.503Z,14.36
2017-11-13T13:17:30.220Z,14.60
2017-11-13T13:18:30.943Z,14.53
2017-11-13T13:19:31.659Z,14.69